createdAt,value
2023-05-06T00:01:29.505Z,0.20
2023-05-06T00:06:51.703Z,0.35
2023-05-06T00:12:14.234Z,0.30
2023-05-06T00:17:36.088Z,0.20
2023-05-06T00:22:58.137Z,0.30
2023-05-06T00:28:19.909Z,0.20
2023-05-06T00:33:41.843Z,0.20
2023-05-06T00:39:04.089Z,0.30
2023-05-06T00:44:25.917Z,0.30
2023-05-06T00:49:48.586Z,0.20
2023-05-06T00:55:10.842Z,0.20
2023-05-06T01:00:32.900Z,0.20
2023-05-06T01:06:07.987Z,0.20
2023-05-06T01:11:32.377Z,0.30
2023-05-06T01:16:59.010Z,0.20
2023-05-06T01:22:24.939Z,0.22
2023-05-06T01:27:46.784Z,0.20
2023-05-06T01:33:15.166Z,0.43
2023-05-06T01:44:23.565Z,0.17
2023-05-06T01:49:45.418Z,0.10
2023-05-06T01:55:08.040Z,0.20
2023-05-06T02:00:30.874Z,0.10
2023-05-06T02:05:52.770Z,0.20
2023-05-06T02:11:14.917Z,0.45
2023-05-06T02:16:36.833Z,0.28
2023-05-06T02:21:58.613Z,0.22
2023-05-06T02:27:20.453Z,0.30
2023-05-06T02:32:42.262Z,0.30
2023-05-06T02:38:04.632Z,0.10
2023-05-06T02:43:26.531Z,0.20
2023-05-06T02:48:48.341Z,0.30
2023-05-06T02:54:10.115Z,0.20
2023-05-06T02:59:31.960Z,0.28
2023-05-06T03:04:53.769Z,0.20
2023-05-06T03:10:15.772Z,0.30
2023-05-06T03:15:37.661Z,0.15
2023-05-06T03:20:59.567Z,0.20
2023-05-06T03:26:21.683Z,0.10
2023-05-06T03:31:43.512Z,0.10
2023-05-06T03:37:05.314Z,0.10
2023-05-06T03:42:27.253Z,0.10
2023-05-06T03:47:49.140Z,0.20
2023-05-06T03:53:11.093Z,0.10
2023-05-06T03:58:32.961Z,0.10
2023-05-06T04:03:54.977Z,0.10
2023-05-06T04:09:16.802Z,0.30
2023-05-06T04:14:40.200Z,0.10
2023-05-06T04:20:09.080Z,0.10
2023-05-06T04:25:30.954Z,0.17
2023-05-06T04:30:53.099Z,0.10
2023-05-06T04:36:14.943Z,0.10
2023-05-06T04:41:38.122Z,0.00
2023-05-06T04:46:59.957Z,0.17
2023-05-06T04:52:21.833Z,0.13
2023-05-06T04:57:43.620Z,0.08
2023-05-06T05:03:05.687Z,0.10
2023-05-06T05:08:27.880Z,0.17
2023-05-06T05:13:49.682Z,0.15
2023-05-06T05:19:11.502Z,0.20
2023-05-06T05:24:33.265Z,0.10
2023-05-06T05:29:55.163Z,0.20
2023-05-06T05:35:17.403Z,0.10
2023-05-06T05:40:39.719Z,0.10
2023-05-06T05:46:01.573Z,0.10
2023-05-06T05:51:23.425Z,0.10
2023-05-06T05:56:46.123Z,0.10
2023-05-06T06:02:08.055Z,0.20
2023-05-06T06:07:29.854Z,0.10
2023-05-06T06:12:52.665Z,0.10
2023-05-06T06:18:14.648Z,0.20
2023-05-06T06:23:36.495Z,0.10
2023-05-06T06:28:58.340Z,0.50
2023-05-06T06:34:20.212Z,0.10
2023-05-06T06:39:41.998Z,0.30
2023-05-06T06:45:04.794Z,0.40
2023-05-06T06:50:27.135Z,0.88
2023-05-06T06:55:48.948Z,0.80
2023-05-06T07:01:11.236Z,1.38
2023-05-06T07:06:33.328Z,1.15
2023-05-06T07:11:55.113Z,1.70
2023-05-06T07:17:17.103Z,1.95
2023-05-06T07:22:39.409Z,2.45
2023-05-06T07:28:01.306Z,2.42
2023-05-06T07:33:23.217Z,2.88
2023-05-06T07:38:45.568Z,2.58
2023-05-06T07:44:07.392Z,2.33
2023-05-06T07:49:31.082Z,2.42
2023-05-06T07:54:53.710Z,2.55
2023-05-06T08:00:15.871Z,2.05
2023-05-06T08:05:37.646Z,1.83
2023-05-06T08:10:59.525Z,1.88
2023-05-06T08:16:22.573Z,1.70
2023-05-06T08:21:46.431Z,1.77
2023-05-06T08:27:08.332Z,2.10
2023-05-06T08:32:30.888Z,1.80
2023-05-06T08:37:52.789Z,1.73
2023-05-06T08:43:15.397Z,1.55
2023-05-06T08:48:37.829Z,1.45
2023-05-06T08:54:04.249Z,1.20
2023-05-06T08:59:30.649Z,1.25
2023-05-06T09:04:53.932Z,1.33
2023-05-06T09:10:18.086Z,1.45
2023-05-06T09:15:49.666Z,0.90
2023-05-06T09:21:11.507Z,1.52
2023-05-06T09:26:35.304Z,1.30
2023-05-06T09:31:57.522Z,1.30
2023-05-06T09:37:21.176Z,1.05
2023-05-06T09:42:43.917Z,1.20
2023-05-06T09:48:08.536Z,0.90
2023-05-06T09:53:33.141Z,0.90
2023-05-06T09:58:55.923Z,1.17
2023-05-06T10:04:18.797Z,0.90
2023-05-06T10:09:42.105Z,0.90
2023-05-06T10:15:05.081Z,0.95
2023-05-06T10:20:27.973Z,0.95
2023-05-06T10:25:53.897Z,0.80
2023-05-06T10:31:16.969Z,1.00
2023-05-06T10:36:41.064Z,0.82
2023-05-06T10:42:02.979Z,1.17
2023-05-06T10:47:24.997Z,0.73
2023-05-06T10:52:47.927Z,0.90
2023-05-06T10:58:15.717Z,1.00
2023-05-06T11:03:37.783Z,0.82
2023-05-06T11:09:01.456Z,0.52
2023-05-06T11:14:31.328Z,0.60
2023-05-06T11:20:19.261Z,0.50
2023-05-06T11:25:43.140Z,0.82
2023-05-06T11:31:05.235Z,0.70
2023-05-06T11:36:28.658Z,0.50
2023-05-06T11:41:53.507Z,0.82
2023-05-06T11:47:15.803Z,0.60
2023-05-06T11:52:37.736Z,0.63
2023-05-06T11:57:59.534Z,0.55
2023-05-06T12:03:22.370Z,0.55
2023-05-06T12:08:44.552Z,0.40
2023-05-06T12:14:09.102Z,0.43
2023-05-06T12:19:31.410Z,0.50
2023-05-06T12:24:53.447Z,0.40
2023-05-06T12:30:15.406Z,0.50
2023-05-06T12:35:37.946Z,0.35
2023-05-06T12:40:59.835Z,0.50
2023-05-06T12:46:21.795Z,0.52
2023-05-06T12:51:44.805Z,0.50
2023-05-06T12:57:08.590Z,0.60
2023-05-06T13:02:30.487Z,0.30
2023-05-06T13:07:53.368Z,0.30
2023-05-06T13:13:15.243Z,0.40
2023-05-06T13:18:37.391Z,0.50
2023-05-06T13:23:59.595Z,0.30
2023-05-06T13:29:23.445Z,0.50
2023-05-06T13:34:45.501Z,0.32
2023-05-06T13:40:08.309Z,0.40
2023-05-06T13:45:30.235Z,0.30
2023-05-06T13:50:52.539Z,0.40
2023-05-06T13:56:14.329Z,0.30
2023-05-06T14:01:36.220Z,0.40
2023-05-06T14:06:58.040Z,0.38
2023-05-06T14:12:19.811Z,0.50
2023-05-06T14:17:41.996Z,0.30
2023-05-06T14:23:07.181Z,0.20
2023-05-06T14:28:29.158Z,0.30
2023-05-06T14:33:50.945Z,0.30
2023-05-06T14:39:13.239Z,0.20
2023-05-06T14:44:35.042Z,0.20
2023-05-06T14:49:57.099Z,0.28
2023-05-06T14:55:20.453Z,0.30
2023-05-06T15:00:42.302Z,0.30
2023-05-06T15:06:04.314Z,0.13
2023-05-06T15:11:26.223Z,0.20
2023-05-06T15:16:48.336Z,0.20
2023-05-06T15:22:10.355Z,0.20
2023-05-06T15:27:32.262Z,0.30
2023-05-06T15:32:54.104Z,0.20
2023-05-06T15:38:15.924Z,0.20
2023-05-06T15:43:38.835Z,0.13
2023-05-06T15:54:25.979Z,0.17
2023-05-06T15:59:47.811Z,0.20
2023-05-06T16:05:10.013Z,0.20
2023-05-06T16:10:31.868Z,0.10
2023-05-06T16:15:53.771Z,0.10
2023-05-06T16:21:15.594Z,0.03
2023-05-06T16:26:37.418Z,0.20
2023-05-06T16:32:00.873Z,0.50
2023-05-06T16:37:22.835Z,0.60
2023-05-06T16:42:44.768Z,0.38
2023-05-06T16:48:07.179Z,0.30
2023-05-06T16:53:29.709Z,0.20
2023-05-06T16:58:51.506Z,0.20
2023-05-06T17:04:14.240Z,0.10
2023-05-06T17:09:36.135Z,0.20
2023-05-06T17:14:58.079Z,0.20
2023-05-06T17:20:20.330Z,0.30
2023-05-06T17:25:42.188Z,0.30
2023-05-06T17:31:03.964Z,0.22
2023-05-06T17:36:26.275Z,0.90
2023-05-06T17:41:48.064Z,0.45
2023-05-06T17:47:10.573Z,0.70
2023-05-06T17:52:32.371Z,1.10
2023-05-06T17:57:54.378Z,1.50
2023-05-06T18:03:16.599Z,1.10
2023-05-06T18:08:38.411Z,1.55
2023-05-06T18:14:00.366Z,1.60
2023-05-06T18:19:22.211Z,0.90
2023-05-06T18:24:44.059Z,1.45
2023-05-06T18:30:06.799Z,0.98
2023-05-06T18:35:28.637Z,1.23
2023-05-06T18:40:50.486Z,0.82
2023-05-06T18:46:12.352Z,0.88
2023-05-06T18:51:34.428Z,0.65
2023-05-06T18:56:56.303Z,1.05
2023-05-06T19:02:18.152Z,0.85
2023-05-06T19:07:40.003Z,1.48
2023-05-06T19:13:01.850Z,0.80
2023-05-06T19:18:23.700Z,1.20
2023-05-06T19:23:45.600Z,1.48
2023-05-06T19:29:07.466Z,1.48
2023-05-06T19:34:29.471Z,1.65
2023-05-06T19:39:51.290Z,1.55
2023-05-06T19:45:14.587Z,1.38
2023-05-06T19:50:38.074Z,1.20
2023-05-06T19:56:08.758Z,1.23
2023-05-06T20:01:30.636Z,1.42
2023-05-06T20:06:52.951Z,1.95
2023-05-06T20:12:14.771Z,1.70
2023-05-06T20:17:36.752Z,1.65
2023-05-06T20:22:58.572Z,1.73
2023-05-06T20:28:20.414Z,1.98
2023-05-06T20:33:42.902Z,1.70
2023-05-06T20:39:10.247Z,1.35
2023-05-06T20:44:32.004Z,1.23
2023-05-06T20:49:54.668Z,1.77
2023-05-06T20:55:16.669Z,1.70
2023-05-06T21:00:38.601Z,1.15
2023-05-06T21:06:00.729Z,1.10
2023-05-06T21:11:22.627Z,1.02
2023-05-06T21:16:44.709Z,1.10
2023-05-06T21:22:10.206Z,1.10
2023-05-06T21:32:54.164Z,0.90
2023-05-06T21:38:16.063Z,0.85
2023-05-06T21:43:37.895Z,0.70
2023-05-06T21:49:00.125Z,0.80
2023-05-06T21:54:21.912Z,0.90
2023-05-06T21:59:43.646Z,0.68
2023-05-06T22:05:07.099Z,0.95
2023-05-06T22:10:29.078Z,0.80
2023-05-06T22:15:52.359Z,0.85
2023-05-06T22:21:14.392Z,0.52
2023-05-06T22:26:36.412Z,0.52
2023-05-06T22:31:58.305Z,0.90
2023-05-06T22:37:20.258Z,0.70
2023-05-06T22:42:42.073Z,0.60
2023-05-06T22:48:04.680Z,0.50
2023-05-06T22:53:26.523Z,0.50
2023-05-06T22:58:48.310Z,0.50
2023-05-06T23:04:10.209Z,0.60
2023-05-06T23:09:32.161Z,0.30
2023-05-06T23:14:53.989Z,0.50
2023-05-06T23:20:17.389Z,0.30
2023-05-06T23:25:39.282Z,0.40
2023-05-06T23:31:01.155Z,0.43
2023-05-06T23:36:23.009Z,0.40
2023-05-06T23:41:44.855Z,0.32
2023-05-06T23:47:06.923Z,0.20
2023-05-06T23:52:29.018Z,0.50
2023-05-06T23:57:51.263Z,0.30
